Time;durP1;ratioP1;P1;durP2;ratioP2;P2;SDS_P1;SDS_P2;PMS_P1;PMS_P2;Temp;Humidity;BMP_temperature;BMP_pressure;BME280_temperature;BME280_humidity;BME280_pressure;Samples;Min_cycle;Max_cycle;Signal;HPM_P1;HPM_P2
2023/06/27 00:00:42;;;;;;;0.73;0.73;;;;;;;;;;7388705;19;20137;-90
2023/06/27 00:03:09;;;;;;;0.50;0.50;;;;;;;;;;7388434;19;20606;-88
2023/06/27 00:05:35;;;;;;;0.50;0.50;;;;;;;;;;7389646;19;20153;-88
2023/06/27 00:08:02;;;;;;;0.57;0.57;;;;;;;;;;7392254;19;20139;-89
2023/06/27 00:10:29;;;;;;;0.90;0.60;;;;;;;;;;7389259;19;20137;-88
2023/06/27 00:12:56;;;;;;;0.43;0.43;;;;;;;;;;7389335;19;20157;-88
2023/06/27 00:15:23;;;;;;;0.40;0.40;;;;;;;;;;7388998;19;20172;-88
2023/06/27 00:17:53;;;;;;;0.63;0.63;;;;;;;;;;7388577;19;20133;-88
2023/06/27 00:20:23;;;;;;;0.50;0.50;;;;;;;;;;7394027;19;20152;-89
2023/06/27 00:22:53;;;;;;;0.60;0.60;;;;;;;;;;7392632;19;20148;-89
2023/06/27 00:25:23;;;;;;;0.40;0.40;;;;;;;;;;7391933;19;20187;-88
2023/06/27 00:27:53;;;;;;;0.50;0.50;;;;;;;;;;7392520;19;20164;-88
2023/06/27 00:30:22;;;;;;;0.60;0.60;;;;;;;;;;7392556;19;20137;-87
2023/06/27 00:32:49;;;;;;;1.58;0.60;;;;;;;;;;7389500;19;20148;-88
2023/06/27 00:35:16;;;;;;;0.32;0.32;;;;;;;;;;7390048;19;20224;-88
2023/06/27 00:37:43;;;;;;;1.88;0.70;;;;;;;;;;7391411;19;20605;-87
2023/06/27 00:40:10;;;;;;;0.43;0.43;;;;;;;;;;7394978;19;20150;-88
2023/06/27 00:42:37;;;;;;;0.30;0.30;;;;;;;;;;7393601;19;20137;-87
2023/06/27 00:45:04;;;;;;;0.43;0.43;;;;;;;;;;7392169;19;20156;-87
2023/06/27 00:47:31;;;;;;;0.47;0.47;;;;;;;;;;7394638;19;20477;-88
2023/06/27 00:49:58;;;;;;;0.65;0.65;;;;;;;;;;7395267;19;20141;-88
2023/06/27 00:52:25;;;;;;;0.50;0.50;;;;;;;;;;7397318;19;20211;-88
2023/06/27 00:54:52;;;;;;;0.50;0.50;;;;;;;;;;7389442;19;20327;-87
2023/06/27 00:57:19;;;;;;;0.75;0.50;;;;;;;;;;7392929;19;20147;-87
2023/06/27 00:59:45;;;;;;;0.50;0.50;;;;;;;;;;7389966;19;20165;-87
2023/06/27 01:02:12;;;;;;;1.90;0.98;;;;;;;;;;7390456;19;20158;-88
2023/06/27 01:04:39;;;;;;;0.32;0.32;;;;;;;;;;7388236;19;20228;-87
2023/06/27 01:07:15;;;;;;;0.40;0.40;;;;;;;;;;7392902;19;20157;-88
2023/06/27 01:09:43;;;;;;;0.40;0.40;;;;;;;;;;7388328;19;20141;-88
2023/06/27 01:12:15;;;;;;;0.65;0.65;;;;;;;;;;7384322;19;20201;-88
2023/06/27 01:14:44;;;;;;;0.40;0.40;;;;;;;;;;7390761;19;20145;-87
2023/06/27 01:17:11;;;;;;;2.85;0.50;;;;;;;;;;7390356;19;20150;-88
2023/06/27 01:19:43;;;;;;;0.32;0.32;;;;;;;;;;7391731;19;20744;-87
2023/06/27 01:22:15;;;;;;;0.47;0.47;;;;;;;;;;7389958;19;20217;-87
2023/06/27 01:24:43;;;;;;;0.60;0.60;;;;;;;;;;7388471;19;20177;-88
2023/06/27 01:27:13;;;;;;;1.05;0.95;;;;;;;;;;7393238;19;20133;-88
2023/06/27 01:29:40;;;;;;;0.70;0.70;;;;;;;;;;7400214;19;20142;-88
2023/06/27 01:32:10;;;;;;;0.50;0.50;;;;;;;;;;7398122;19;20149;-88
2023/06/27 01:34:48;;;;;;;0.60;0.60;;;;;;;;;;7399970;19;20149;-88
2023/06/27 01:37:29;;;;;;;1.25;0.77;;;;;;;;;;7401091;19;20153;-87
2023/06/27 01:40:08;;;;;;;0.55;0.55;;;;;;;;;;7400848;19;20605;-86
2023/06/27 01:42:41;;;;;;;0.63;0.60;;;;;;;;;;7396804;19;20752;-88
2023/06/27 01:45:10;;;;;;;0.55;0.55;;;;;;;;;;7398186;19;20156;-87
2023/06/27 01:47:39;;;;;;;0.30;0.30;;;;;;;;;;7396707;19;20210;-87
2023/06/27 01:50:06;;;;;;;0.98;0.98;;;;;;;;;;7394890;19;20160;-88
2023/06/27 01:52:33;;;;;;;0.40;0.40;;;;;;;;;;7396955;19;20194;-87
2023/06/27 01:54:59;;;;;;;0.57;0.57;;;;;;;;;;7393624;19;20148;-87
2023/06/27 01:57:26;;;;;;;0.40;0.40;;;;;;;;;;7397011;19;20510;-87
2023/06/27 01:59:53;;;;;;;0.70;0.55;;;;;;;;;;7387229;19;20137;-88
2023/06/27 02:02:19;;;;;;;0.50;0.50;;;;;;;;;;7397752;19;20151;-88
2023/06/27 02:04:46;;;;;;;0.30;0.30;;;;;;;;;;7394155;19;20149;-87
2023/06/27 02:07:13;;;;;;;0.35;0.35;;;;;;;;;;7397927;19;20487;-88
2023/06/27 02:09:40;;;;;;;0.32;0.32;;;;;;;;;;7395494;19;20137;-88
2023/06/27 02:12:09;;;;;;;0.50;0.50;;;;;;;;;;7400260;19;20141;-88
2023/06/27 02:14:36;;;;;;;0.40;0.40;;;;;;;;;;7397752;19;20187;-87
2023/06/27 02:17:03;;;;;;;0.40;0.40;;;;;;;;;;7398253;19;20630;-88
2023/06/27 02:19:30;;;;;;;0.70;0.70;;;;;;;;;;7390807;19;20158;-88
2023/06/27 02:21:57;;;;;;;0.40;0.40;;;;;;;;;;7399176;19;20150;-88
2023/06/27 02:24:23;;;;;;;0.50;0.50;;;;;;;;;;7400904;19;20613;-88
2023/06/27 02:26:50;;;;;;;0.60;0.52;;;;;;;;;;7398077;19;20145;-88
2023/06/27 02:29:17;;;;;;;0.88;0.75;;;;;;;;;;7399551;19;20588;-87
2023/06/27 02:31:43;;;;;;;0.30;0.30;;;;;;;;;;7394100;19;20145;-88
2023/06/27 02:34:10;;;;;;;1.05;1.05;;;;;;;;;;7396875;19;20181;-88
2023/06/27 02:36:37;;;;;;;0.63;0.63;;;;;;;;;;7396016;19;20137;-87
2023/06/27 02:39:03;;;;;;;0.47;0.47;;;;;;;;;;7394788;19;20133;-87
2023/06/27 02:41:30;;;;;;;0.43;0.43;;;;;;;;;;7396870;19;20185;-87
2023/06/27 02:43:57;;;;;;;0.40;0.40;;;;;;;;;;7389595;19;20165;-88
2023/06/27 02:46:24;;;;;;;0.60;0.60;;;;;;;;;;7399680;19;20625;-88
2023/06/27 02:48:50;;;;;;;0.70;0.70;;;;;;;;;;7394007;19;20525;-89
2023/06/27 02:51:17;;;;;;;0.40;0.40;;;;;;;;;;7398643;19;20133;-88
2023/06/27 02:53:44;;;;;;;0.50;0.50;;;;;;;;;;7399317;19;20157;-88
2023/06/27 02:56:11;;;;;;;0.40;0.40;;;;;;;;;;7393203;19;20125;-88
2023/06/27 02:58:39;;;;;;;0.88;0.65;;;;;;;;;;7396347;19;20137;-88
2023/06/27 03:01:08;;;;;;;0.50;0.50;;;;;;;;;;7396733;19;20125;-88
2023/06/27 03:03:35;;;;;;;0.50;0.50;;;;;;;;;;7395462;19;20141;-88
2023/06/27 03:06:03;;;;;;;0.75;0.75;;;;;;;;;;7393555;19;20137;-88
2023/06/27 03:08:30;;;;;;;2.30;0.75;;;;;;;;;;7394887;19;20150;-88
2023/06/27 03:10:57;;;;;;;0.55;0.55;;;;;;;;;;7397032;19;20177;-88
2023/06/27 03:13:24;;;;;;;0.30;0.30;;;;;;;;;;7394366;19;20154;-88
2023/06/27 03:15:50;;;;;;;0.32;0.32;;;;;;;;;;7396432;19;20182;-89
2023/06/27 03:18:17;;;;;;;0.85;0.60;;;;;;;;;;7399950;19;20117;-88
2023/06/27 03:20:44;;;;;;;0.52;0.52;;;;;;;;;;7400945;19;20176;-86
2023/06/27 03:23:11;;;;;;;0.77;0.77;;;;;;;;;;7398414;19;20133;-88
2023/06/27 03:25:38;;;;;;;0.40;0.40;;;;;;;;;;7397860;19;20149;-88
2023/06/27 03:28:05;;;;;;;0.40;0.40;;;;;;;;;;7399625;19;20390;-88
2023/06/27 03:30:32;;;;;;;0.30;0.30;;;;;;;;;;7401550;19;20137;-88
2023/06/27 03:32:59;;;;;;;0.30;0.30;;;;;;;;;;7397685;19;20621;-88
2023/06/27 03:35:25;;;;;;;0.40;0.40;;;;;;;;;;7400362;19;20160;-88
2023/06/27 03:37:52;;;;;;;1.02;0.50;;;;;;;;;;7398661;19;20142;-88
2023/06/27 03:40:19;;;;;;;0.30;0.30;;;;;;;;;;7398272;19;20188;-88
2023/06/27 03:42:45;;;;;;;0.57;0.57;;;;;;;;;;7397718;19;20617;-88
2023/06/27 03:45:12;;;;;;;0.40;0.40;;;;;;;;;;7394506;19;20170;-88
2023/06/27 03:47:39;;;;;;;0.38;0.38;;;;;;;;;;7394340;19;20503;-88
2023/06/27 03:50:06;;;;;;;0.40;0.40;;;;;;;;;;7391281;19;20156;-89
2023/06/27 03:52:46;;;;;;;0.40;0.40;;;;;;;;;;7392417;19;20157;-89
2023/06/27 03:55:13;;;;;;;1.38;0.73;;;;;;;;;;7389729;19;20149;-88
2023/06/27 03:57:43;;;;;;;0.30;0.30;;;;;;;;;;7393374;19;20140;-88
2023/06/27 04:00:10;;;;;;;0.55;0.55;;;;;;;;;;7389937;19;20204;-89
2023/06/27 04:02:37;;;;;;;0.30;0.30;;;;;;;;;;7393314;19;20133;-88
2023/06/27 04:05:04;;;;;;;0.75;0.40;;;;;;;;;;7393537;19;20145;-88
2023/06/27 04:07:31;;;;;;;0.90;0.55;;;;;;;;;;7393858;19;20125;-88
2023/06/27 04:09:58;;;;;;;0.40;0.40;;;;;;;;;;7394177;19;20129;-88
2023/06/27 04:12:24;;;;;;;0.40;0.40;;;;;;;;;;7390383;19;20131;-88
2023/06/27 04:14:51;;;;;;;0.50;0.50;;;;;;;;;;7392230;19;20165;-88
2023/06/27 04:17:17;;;;;;;0.30;0.30;;;;;;;;;;7391296;19;20133;-88
2023/06/27 04:19:44;;;;;;;0.50;0.50;;;;;;;;;;7390329;19;20135;-88
2023/06/27 04:22:11;;;;;;;0.32;0.32;;;;;;;;;;7391347;19;20145;-89
2023/06/27 04:24:38;;;;;;;0.38;0.38;;;;;;;;;;7387002;19;20159;-88
2023/06/27 04:27:22;;;;;;;0.40;0.40;;;;;;;;;;7391717;19;20487;-88
2023/06/27 04:30:26;;;;;;;0.40;0.40;;;;;;;;;;7387961;19;20641;-88
2023/06/27 04:33:08;;;;;;;0.40;0.40;;;;;;;;;;7385871;19;20144;-89
2023/06/27 04:36:29;;;;;;;0.55;0.55;;;;;;;;;;7389101;19;20351;-87
2023/06/27 04:38:56;;;;;;;0.40;0.40;;;;;;;;;;7394534;19;20160;-88
2023/06/27 04:42:03;;;;;;;0.40;0.40;;;;;;;;;;7396064;19;20149;-87
2023/06/27 04:45:01;;;;;;;0.73;0.73;;;;;;;;;;7394566;19;20164;-87
2023/06/27 04:47:46;;;;;;;0.57;0.57;;;;;;;;;;7396201;19;20202;-88
2023/06/27 04:50:18;;;;;;;0.30;0.30;;;;;;;;;;7394635;19;20150;-87
2023/06/27 04:52:46;;;;;;;0.55;0.50;;;;;;;;;;7394649;19;20149;-88
2023/06/27 04:55:13;;;;;;;0.93;0.93;;;;;;;;;;7392428;19;20220;-86
2023/06/27 04:57:39;;;;;;;0.40;0.40;;;;;;;;;;7393103;19;20137;-88
2023/06/27 05:19:50;;;;;;;0.65;0.65;;;;;;;;;;7399431;19;20129;-88
2023/06/27 05:22:17;;;;;;;0.55;0.50;;;;;;;;;;7393329;19;20169;-90
2023/06/27 05:24:55;;;;;;;0.50;0.50;;;;;;;;;;7395427;19;20169;-89
2023/06/27 05:27:33;;;;;;;0.40;0.40;;;;;;;;;;7397453;19;20141;-88
2023/06/27 05:30:11;;;;;;;0.50;0.50;;;;;;;;;;7393011;19;20924;-89
2023/06/27 05:32:43;;;;;;;0.57;0.57;;;;;;;;;;7397533;19;20155;-87
2023/06/27 05:35:26;;;;;;;0.50;0.50;;;;;;;;;;7396942;19;20175;-87
2023/06/27 05:37:57;;;;;;;0.50;0.50;;;;;;;;;;7396637;19;20507;-87
2023/06/27 05:41:06;;;;;;;;;;;;;;;;;;;;;
2023/06/27 05:55:16;;;;;;;0.90;0.50;;;;;;;;;;7393798;19;20120;-85
2023/06/27 05:57:43;;;;;;;0.50;0.50;;;;;;;;;;7392773;19;20200;-86
2023/06/27 06:00:11;;;;;;;0.40;0.40;;;;;;;;;;7391364;19;20216;-86
2023/06/27 06:02:38;;;;;;;0.52;0.52;;;;;;;;;;7387766;19;20134;-86
2023/06/27 06:05:07;;;;;;;0.47;0.47;;;;;;;;;;7383209;19;20156;-86
2023/06/27 06:07:34;;;;;;;0.95;0.85;;;;;;;;;;7386299;19;20492;-86
2023/06/27 06:10:01;;;;;;;0.40;0.40;;;;;;;;;;7385957;19;20612;-86
2023/06/27 06:12:28;;;;;;;0.40;0.40;;;;;;;;;;7388237;19;20138;-86
2023/06/27 06:14:55;;;;;;;0.40;0.40;;;;;;;;;;7396179;19;20145;-87
2023/06/27 06:17:21;;;;;;;0.50;0.50;;;;;;;;;;7406719;19;20137;-86
2023/06/27 06:19:48;;;;;;;0.82;0.82;;;;;;;;;;7414463;19;20781;-86
2023/06/27 06:22:15;;;;;;;0.68;0.68;;;;;;;;;;7410862;19;20165;-86
2023/06/27 06:24:42;;;;;;;0.40;0.40;;;;;;;;;;7404036;19;20156;-89
2023/06/27 06:27:08;;;;;;;0.40;0.40;;;;;;;;;;7410578;19;20133;-88
2023/06/27 06:29:35;;;;;;;1.05;0.50;;;;;;;;;;7415987;19;20150;-87
2023/06/27 06:32:02;;;;;;;0.70;0.70;;;;;;;;;;7416545;19;20154;-88
2023/06/27 06:34:30;;;;;;;0.47;0.47;;;;;;;;;;7408057;19;20168;-87
2023/06/27 06:36:57;;;;;;;0.82;0.77;;;;;;;;;;7411634;19;20754;-87
2023/06/27 06:39:23;;;;;;;3.75;0.57;;;;;;;;;;7414089;19;20510;-88
2023/06/27 06:41:51;;;;;;;0.77;0.77;;;;;;;;;;7408735;19;20180;-88
2023/06/27 06:44:17;;;;;;;0.52;0.52;;;;;;;;;;7400331;19;20206;-87
2023/06/27 06:46:44;;;;;;;0.65;0.65;;;;;;;;;;7396793;19;20541;-88
2023/06/27 06:49:11;;;;;;;0.50;0.50;;;;;;;;;;7398856;19;20121;-87
2023/06/27 06:51:38;;;;;;;0.57;0.57;;;;;;;;;;7405161;19;20907;-88
2023/06/27 06:54:05;;;;;;;0.43;0.43;;;;;;;;;;7403181;19;20216;-87
2023/06/27 06:56:31;;;;;;;0.40;0.40;;;;;;;;;;7399458;19;20192;-88
2023/06/27 06:59:20;;;;;;;0.55;0.55;;;;;;;;;;7399450;19;20133;-90
2023/06/27 07:05:01;;;;;;;4.57;0.98;;;;;;;;;;7395560;19;20148;-90
2023/06/27 07:07:29;;;;;;;0.40;0.40;;;;;;;;;;7393343;19;20192;-89
2023/06/27 07:09:55;;;;;;;0.55;0.50;;;;;;;;;;7400581;19;20148;-89
2023/06/27 07:12:22;;;;;;;0.47;0.47;;;;;;;;;;7403362;19;20136;-88
2023/06/27 07:14:49;;;;;;;0.40;0.40;;;;;;;;;;7403322;19;20171;-89
2023/06/27 07:17:16;;;;;;;2.90;0.75;;;;;;;;;;7398149;19;20147;-88
2023/06/27 07:19:42;;;;;;;0.30;0.30;;;;;;;;;;7403047;19;20148;-88
2023/06/27 07:22:09;;;;;;;0.47;0.47;;;;;;;;;;7394800;19;20148;-90
2023/06/27 07:24:36;;;;;;;0.65;0.65;;;;;;;;;;7394495;19;20159;-91
2023/06/27 07:27:03;;;;;;;0.60;0.60;;;;;;;;;;7394766;19;20693;-89
2023/06/27 07:29:29;;;;;;;0.60;0.60;;;;;;;;;;7393131;19;20136;-88
2023/06/27 07:31:56;;;;;;;0.70;0.70;;;;;;;;;;7396787;19;20606;-89
2023/06/27 07:34:23;;;;;;;0.50;0.50;;;;;;;;;;7394432;19;20157;-89
2023/06/27 07:36:53;;;;;;;0.70;0.70;;;;;;;;;;7397449;19;20141;-89
2023/06/27 07:39:19;;;;;;;0.57;0.57;;;;;;;;;;7397264;19;20213;-87
2023/06/27 07:41:47;;;;;;;0.52;0.52;;;;;;;;;;7393874;19;20125;-90
2023/06/27 07:44:14;;;;;;;0.63;0.63;;;;;;;;;;7393628;19;20145;-89
2023/06/27 07:46:41;;;;;;;0.60;0.60;;;;;;;;;;7394732;19;20137;-90
2023/06/27 07:49:10;;;;;;;0.70;0.50;;;;;;;;;;7393322;19;20200;-90
2023/06/27 07:52:16;;;;;;;0.35;0.35;;;;;;;;;;7392188;19;20145;-90
2023/06/27 07:54:43;;;;;;;0.63;0.55;;;;;;;;;;7397547;19;20153;-90
2023/06/27 07:57:12;;;;;;;9.63;1.05;;;;;;;;;;7394610;19;20141;-89
2023/06/27 07:59:39;;;;;;;0.60;0.60;;;;;;;;;;7396088;19;20141;-89
2023/06/27 08:02:06;;;;;;;0.40;0.40;;;;;;;;;;7393249;19;20205;-89
2023/06/27 08:04:33;;;;;;;0.47;0.47;;;;;;;;;;7389784;19;20171;-91
2023/06/27 08:07:02;;;;;;;0.88;0.88;;;;;;;;;;7394181;19;20149;-89
2023/06/27 08:09:29;;;;;;;0.55;0.55;;;;;;;;;;7394447;19;20141;-89
2023/06/27 08:11:55;;;;;;;0.50;0.50;;;;;;;;;;7395324;19;20129;-89
2023/06/27 08:14:22;;;;;;;0.40;0.40;;;;;;;;;;7396325;19;20149;-90
2023/06/27 08:16:49;;;;;;;0.40;0.40;;;;;;;;;;7394938;19;20143;-90
2023/06/27 08:19:30;;;;;;;0.40;0.40;;;;;;;;;;7396064;19;20141;-90
2023/06/27 08:22:01;;;;;;;1.20;0.70;;;;;;;;;;7396002;19;20164;-89
2023/06/27 08:24:54;;;;;;;0.60;0.60;;;;;;;;;;7409145;19;20153;-89
2023/06/27 08:27:41;;;;;;;0.45;0.45;;;;;;;;;;7402286;19;20141;-89
2023/06/27 08:30:48;;;;;;;0.50;0.50;;;;;;;;;;7394420;19;20139;-89
2023/06/27 08:33:25;;;;;;;0.52;0.52;;;;;;;;;;7394076;19;20144;-87
2023/06/27 08:35:51;;;;;;;0.55;0.50;;;;;;;;;;7401342;19;20156;-89
2023/06/27 08:41:21;;;;;;;0.45;0.45;;;;;;;;;;7403995;19;20144;-89
2023/06/27 08:44:23;;;;;;;0.65;0.65;;;;;;;;;;7392298;19;20137;-89
2023/06/27 08:47:06;;;;;;;1.05;0.98;;;;;;;;;;7390082;19;20125;-89
2023/06/27 08:49:37;;;;;;;0.90;0.60;;;;;;;;;;7387534;19;20145;-89
2023/06/27 08:52:07;;;;;;;0.32;0.32;;;;;;;;;;7388965;19;20141;-89
2023/06/27 08:54:37;;;;;;;0.45;0.45;;;;;;;;;;7392589;19;20176;-90
2023/06/27 08:57:05;;;;;;;0.47;0.47;;;;;;;;;;7388843;19;20132;-93
2023/06/27 08:59:35;;;;;;;0.50;0.50;;;;;;;;;;7393627;19;20141;-87
2023/06/27 09:02:03;;;;;;;1.15;0.70;;;;;;;;;;7397153;19;20137;-89
2023/06/27 09:04:33;;;;;;;0.40;0.40;;;;;;;;;;7399752;19;20170;-88
2023/06/27 09:07:00;;;;;;;0.93;0.77;;;;;;;;;;7403884;19;20177;-89
2023/06/27 09:09:28;;;;;;;0.90;0.85;;;;;;;;;;7400970;19;20141;-88
2023/06/27 09:11:58;;;;;;;0.45;0.45;;;;;;;;;;7402266;19;20228;-88
2023/06/27 09:14:30;;;;;;;0.60;0.60;;;;;;;;;;7402081;19;20212;-88
2023/06/27 09:21:21;;;;;;;0.38;0.38;;;;;;;;;;7404615;19;20145;-89
2023/06/27 09:37:52;;;;;;;0.50;0.50;;;;;;;;;;7400901;19;20135;-88
2023/06/27 09:40:25;;;;;;;0.57;0.57;;;;;;;;;;7394198;19;20153;-88
2023/06/27 09:42:57;;;;;;;0.47;0.47;;;;;;;;;;7397369;19;20169;-88
2023/06/27 09:45:27;;;;;;;0.77;0.73;;;;;;;;;;7394567;19;20564;-88
2023/06/27 09:47:53;;;;;;;0.45;0.45;;;;;;;;;;7400232;19;20141;-90
2023/06/27 09:50:31;;;;;;;0.60;0.60;;;;;;;;;;7396678;19;20515;-90
2023/06/27 09:52:59;;;;;;;0.98;0.95;;;;;;;;;;7396308;19;20546;-92
2023/06/27 09:55:27;;;;;;;0.60;0.60;;;;;;;;;;7394079;19;20168;-90
2023/06/27 09:57:54;;;;;;;0.93;0.85;;;;;;;;;;7395452;19;20209;-89
2023/06/27 10:00:28;;;;;;;0.47;0.47;;;;;;;;;;7395494;19;20612;-90
2023/06/27 10:02:56;;;;;;;0.50;0.50;;;;;;;;;;7411761;19;20513;-89
2023/06/27 10:05:26;;;;;;;1.02;0.95;;;;;;;;;;7413973;19;20168;-89
2023/06/27 10:08:27;;;;;;;0.55;0.55;;;;;;;;;;7410515;19;20164;-88
2023/06/27 10:10:57;;;;;;;0.40;0.40;;;;;;;;;;7411152;19;20140;-89
2023/06/27 10:13:25;;;;;;;0.57;0.57;;;;;;;;;;7407630;19;20141;-88
2023/06/27 10:15:59;;;;;;;0.63;0.63;;;;;;;;;;7411437;19;20149;-89
2023/06/27 10:18:26;;;;;;;0.77;0.77;;;;;;;;;;7410612;19;20137;-89
2023/06/27 10:21:48;;;;;;;;;;;;;;;;;;;;;
2023/06/27 10:33:42;;;;;;;;;;;;;;;;;;;;;
2023/06/27 10:40:50;;;;;;;0.70;0.70;;;;;;;;;;7396230;19;20129;-91
2023/06/27 10:43:46;;;;;;;0.85;0.85;;;;;;;;;;7400352;19;20473;-90
2023/06/27 10:47:27;;;;;;;0.52;0.52;;;;;;;;;;7397562;19;20132;-89
2023/06/27 10:50:06;;;;;;;0.85;0.85;;;;;;;;;;7399293;19;20288;-90
2023/06/27 10:52:39;;;;;;;0.40;0.40;;;;;;;;;;7409260;19;20191;-88
2023/06/27 10:55:50;;;;;;;0.80;0.80;;;;;;;;;;7407279;19;20232;-88
2023/06/27 10:58:26;;;;;;;0.40;0.40;;;;;;;;;;7403105;19;20141;-88
2023/06/27 11:00:54;;;;;;;0.40;0.40;;;;;;;;;;7404337;19;20145;-88
2023/06/27 11:03:57;;;;;;;0.45;0.45;;;;;;;;;;7400090;19;20256;-89
2023/06/27 11:06:51;;;;;;;0.52;0.52;;;;;;;;;;7405307;19;20133;-89
2023/06/27 11:09:22;;;;;;;0.52;0.52;;;;;;;;;;7404290;19;20144;-89
2023/06/27 11:12:52;;;;;;;;;;;;;;;;;;;;;
2023/06/27 11:15:36;;;;;;;0.60;0.60;;;;;;;;;;7411403;19;20184;-89
2023/06/27 11:23:03;;;;;;;;;;;;;;;;;;;;;
2023/06/27 11:30:04;;;;;;;15.68;8.40;;;;;;;;;;7392446;19;20179;-89
2023/06/27 11:33:11;;;;;;;2.72;1.83;;;;;;;;;;7389016;19;20141;-89
2023/06/27 11:36:18;;;;;;;1.00;1.00;;;;;;;;;;7394088;19;20172;-89
2023/06/27 11:43:22;;;;;;;0.70;0.70;;;;;;;;;;7395919;19;20141;-88
2023/06/27 11:46:07;;;;;;;0.73;0.73;;;;;;;;;;7393444;19;20133;-89
2023/06/27 11:48:45;;;;;;;2.33;0.82;;;;;;;;;;7391947;19;20141;-88
2023/06/27 11:52:24;;;;;;;;;;;;;;;;;;;;;
2023/06/27 11:59:14;;;;;;;0.40;0.40;;;;;;;;;;7394762;19;20123;-88
2023/06/27 12:11:01;;;;;;;0.95;0.77;;;;;;;;;;7414163;19;20185;-90
2023/06/27 12:13:32;;;;;;;0.73;0.73;;;;;;;;;;7418969;19;20141;-88
2023/06/27 12:16:59;;;;;;;0.40;0.40;;;;;;;;;;7422046;19;20212;-89
2023/06/27 12:23:10;;;;;;;0.50;0.50;;;;;;;;;;7421854;19;20176;-91
2023/06/27 12:26:10;;;;;;;0.40;0.40;;;;;;;;;;7416216;19;20353;-92
2023/06/27 12:29:01;;;;;;;1.85;0.60;;;;;;;;;;7416712;19;20136;-91
2023/06/27 12:31:28;;;;;;;1.10;1.00;;;;;;;;;;7421555;19;20364;-90
2023/06/27 12:33:59;;;;;;;0.50;0.50;;;;;;;;;;7418405;19;20349;-88
2023/06/27 12:36:27;;;;;;;0.77;0.77;;;;;;;;;;7421396;19;20129;-87
2023/06/27 12:38:54;;;;;;;0.50;0.50;;;;;;;;;;7416525;19;20367;-88
2023/06/27 12:41:21;;;;;;;0.50;0.50;;;;;;;;;;7419880;19;20364;-88
2023/06/27 12:43:49;;;;;;;0.70;0.70;;;;;;;;;;7418433;19;20370;-88
2023/06/27 12:46:18;;;;;;;0.50;0.50;;;;;;;;;;7419682;19;20348;-87
2023/06/27 12:49:12;;;;;;;0.75;0.68;;;;;;;;;;7409639;19;20125;-88
2023/06/27 12:51:50;;;;;;;3.13;0.60;;;;;;;;;;7398325;19;20148;-91
2023/06/27 12:54:24;;;;;;;0.40;0.40;;;;;;;;;;7396407;19;20609;-88
2023/06/27 12:56:54;;;;;;;0.50;0.50;;;;;;;;;;7396091;19;20144;-89
2023/06/27 12:59:26;;;;;;;0.30;0.30;;;;;;;;;;7398620;19;20156;-88
2023/06/27 13:01:55;;;;;;;0.47;0.47;;;;;;;;;;7394635;19;20156;-88
2023/06/27 13:04:46;;;;;;;0.30;0.30;;;;;;;;;;7393405;19;20610;-90
2023/06/27 13:07:31;;;;;;;0.47;0.47;;;;;;;;;;7390795;19;20148;-89
2023/06/27 13:10:09;;;;;;;0.50;0.50;;;;;;;;;;7388903;19;20129;-89
2023/06/27 13:12:36;;;;;;;0.40;0.40;;;;;;;;;;7389464;19;20137;-87
2023/06/27 13:15:10;;;;;;;0.70;0.70;;;;;;;;;;7389434;19;20177;-88
2023/06/27 13:17:46;;;;;;;1.05;0.88;;;;;;;;;;7390141;19;20141;-89
2023/06/27 13:20:14;;;;;;;0.30;0.30;;;;;;;;;;7387967;19;20162;-87
2023/06/27 13:22:58;;;;;;;0.70;0.70;;;;;;;;;;7399487;19;20139;-89
2023/06/27 13:25:44;;;;;;;0.30;0.30;;;;;;;;;;7397156;19;20216;-91
2023/06/27 13:28:11;;;;;;;0.40;0.40;;;;;;;;;;7399310;19;20137;-88
2023/06/27 13:30:38;;;;;;;0.50;0.50;;;;;;;;;;7395768;19;20133;-89
2023/06/27 13:33:26;;;;;;;0.90;0.65;;;;;;;;;;7397775;19;20677;-88
2023/06/27 13:35:53;;;;;;;0.57;0.57;;;;;;;;;;7398795;19;20160;-89
2023/06/27 13:38:21;;;;;;;1.35;0.60;;;;;;;;;;7397785;19;20147;-89
2023/06/27 13:40:54;;;;;;;0.70;0.70;;;;;;;;;;7397353;19;20344;-89
2023/06/27 13:44:05;;;;;;;;;;;;;;;;;;;;;
2023/06/27 13:46:50;;;;;;;0.43;0.43;;;;;;;;;;7394316;19;20369;-89
2023/06/27 13:49:21;;;;;;;0.55;0.55;;;;;;;;;;7392000;19;20364;-90
2023/06/27 13:51:51;;;;;;;0.52;0.52;;;;;;;;;;7398180;19;20347;-89
2023/06/27 13:54:45;;;;;;;0.40;0.40;;;;;;;;;;7393720;19;20864;-88
2023/06/27 13:57:14;;;;;;;0.50;0.50;;;;;;;;;;7395903;19;20356;-89
2023/06/27 13:59:41;;;;;;;0.60;0.57;;;;;;;;;;7396830;19;20900;-89
2023/06/27 14:02:30;;;;;;;1.50;0.70;;;;;;;;;;7399122;19;20349;-89
2023/06/27 14:04:57;;;;;;;1.07;0.93;;;;;;;;;;7397500;19;20340;-89
2023/06/27 14:07:27;;;;;;;0.50;0.50;;;;;;;;;;7399802;19;20366;-89
2023/06/27 14:10:10;;;;;;;0.60;0.60;;;;;;;;;;7397845;19;20366;-89
2023/06/27 14:12:37;;;;;;;0.90;0.80;;;;;;;;;;7396455;19;20369;-88
2023/06/27 14:15:04;;;;;;;0.63;0.63;;;;;;;;;;7397643;19;20345;-88
2023/06/27 14:17:34;;;;;;;0.95;0.63;;;;;;;;;;7400238;19;20367;-87
2023/06/27 14:20:05;;;;;;;0.70;0.70;;;;;;;;;;7399068;19;20345;-86
2023/06/27 14:22:44;;;;;;;0.80;0.80;;;;;;;;;;7398874;19;20758;-88
2023/06/27 14:25:14;;;;;;;0.77;0.77;;;;;;;;;;7395559;19;20357;-90
2023/06/27 14:27:40;;;;;;;0.60;0.60;;;;;;;;;;7396233;19;20132;-87
2023/06/27 14:30:10;;;;;;;0.63;0.63;;;;;;;;;;7399060;19;20133;-89
2023/06/27 14:32:37;;;;;;;0.40;0.40;;;;;;;;;;7398362;19;20140;-88
2023/06/27 14:35:04;;;;;;;1.27;0.90;;;;;;;;;;7395082;19;20152;-91
2023/06/27 14:37:33;;;;;;;0.90;0.88;;;;;;;;;;7399053;19;20519;-89
2023/06/27 14:40:00;;;;;;;0.70;0.70;;;;;;;;;;7395762;19;20178;-87
2023/06/27 14:45:59;;;;;;;0.60;0.60;;;;;;;;;;7394067;19;20141;-88
2023/06/27 14:48:38;;;;;;;0.55;0.55;;;;;;;;;;7400479;19;20140;-87
2023/06/27 14:51:05;;;;;;;1.15;1.05;;;;;;;;;;7397933;19;20189;-87
2023/06/27 14:54:23;;;;;;;0.40;0.40;;;;;;;;;;7396819;19;20155;-87
2023/06/27 14:58:17;;;;;;;;;;;;;;;;;;;;;
2023/06/27 15:01:03;;;;;;;0.50;0.50;;;;;;;;;;7401697;19;20369;-87
2023/06/27 15:06:20;;;;;;;0.57;0.57;;;;;;;;;;7399669;19;20691;-87
2023/06/27 15:55:15;;;;;;;0.50;0.50;;;;;;;;;;7394337;19;20888;-89
2023/06/27 16:26:16;;;;;;;0.32;0.32;;;;;;;;;;7391903;19;20260;-88
2023/06/27 17:01:07;;;;;;;0.50;0.50;;;;;;;;;;7397855;19;20349;-86
2023/06/27 17:17:46;;;;;;;0.60;0.60;;;;;;;;;;7391030;19;20454;-87
2023/06/27 17:20:16;;;;;;;0.50;0.50;;;;;;;;;;7386338;19;20368;-85
2023/06/27 17:22:43;;;;;;;0.77;0.77;;;;;;;;;;7387690;19;20345;-85
2023/06/27 17:25:10;;;;;;;0.60;0.60;;;;;;;;;;7387917;19;20359;-86
2023/06/27 17:27:37;;;;;;;0.80;0.80;;;;;;;;;;7386065;19;20361;-86
2023/06/27 17:30:04;;;;;;;0.73;0.73;;;;;;;;;;7386639;19;20332;-86
2023/06/27 17:32:31;;;;;;;0.70;0.70;;;;;;;;;;7387677;19;20705;-86
2023/06/27 17:34:57;;;;;;;0.60;0.60;;;;;;;;;;7386300;19;20340;-85
2023/06/27 17:37:24;;;;;;;0.50;0.50;;;;;;;;;;7387452;19;20919;-86
2023/06/27 17:39:51;;;;;;;0.77;0.77;;;;;;;;;;7386897;19;20372;-85
2023/06/27 17:42:18;;;;;;;0.90;0.60;;;;;;;;;;7388595;19;20328;-85
2023/06/27 17:44:45;;;;;;;0.90;0.60;;;;;;;;;;7389144;19;20364;-86
2023/06/27 17:47:14;;;;;;;0.55;0.55;;;;;;;;;;7388623;19;20356;-86
2023/06/27 17:49:41;;;;;;;0.67;0.67;;;;;;;;;;7386629;19;20701;-86
2023/06/27 17:52:49;;;;;;;0.40;0.40;;;;;;;;;;7388102;19;20754;-86
2023/06/27 17:56:56;;;;;;;0.70;0.70;;;;;;;;;;7389932;19;20373;-86
2023/06/27 18:00:35;;;;;;;1.13;0.77;;;;;;;;;;7387217;19;20356;-86
2023/06/27 18:03:16;;;;;;;0.60;0.60;;;;;;;;;;7386837;19;20901;-87
2023/06/27 20:16:18;;;;;;;0.70;0.70;;;;;;;;;;7398393;19;20153;-87
2023/06/27 20:18:45;;;;;;;0.50;0.50;;;;;;;;;;7397522;19;20208;-86
2023/06/27 20:21:12;;;;;;;0.70;0.70;;;;;;;;;;7394262;19;20137;-87
2023/06/27 20:23:39;;;;;;;0.50;0.50;;;;;;;;;;7397331;19;20144;-89
2023/06/27 20:26:05;;;;;;;0.52;0.52;;;;;;;;;;7397148;19;20151;-87
2023/06/27 20:28:32;;;;;;;0.40;0.40;;;;;;;;;;7396999;19;20148;-87
2023/06/27 20:31:01;;;;;;;0.70;0.70;;;;;;;;;;7394007;19;20137;-87
2023/06/27 20:33:27;;;;;;;0.50;0.50;;;;;;;;;;7394887;19;20634;-87
2023/06/27 20:35:54;;;;;;;0.50;0.50;;;;;;;;;;7393959;19;20156;-87
2023/06/27 20:38:21;;;;;;;0.38;0.38;;;;;;;;;;7394645;19;20128;-87
2023/06/27 20:40:51;;;;;;;0.93;0.93;;;;;;;;;;7395864;19;20125;-87
2023/06/27 20:43:20;;;;;;;1.02;1.02;;;;;;;;;;7393766;19;20146;-88
2023/06/27 20:45:46;;;;;;;0.60;0.60;;;;;;;;;;7394443;19;20161;-87
2023/06/27 20:48:13;;;;;;;0.68;0.68;;;;;;;;;;7394513;19;20137;-87
2023/06/27 20:50:40;;;;;;;0.50;0.50;;;;;;;;;;7394896;19;20132;-88
2023/06/27 20:53:07;;;;;;;1.42;0.60;;;;;;;;;;7394402;19;20515;-87
2023/06/27 20:55:33;;;;;;;0.77;0.77;;;;;;;;;;7392905;19;20145;-87
2023/06/27 20:58:02;;;;;;;0.60;0.60;;;;;;;;;;7395067;19;20144;-88
2023/06/27 21:00:38;;;;;;;0.73;0.73;;;;;;;;;;7395724;19;20151;-89
2023/06/27 21:03:05;;;;;;;0.32;0.32;;;;;;;;;;7394996;19;20160;-88
2023/06/27 21:05:32;;;;;;;0.43;0.43;;;;;;;;;;7393757;19;20186;-88
